Time;durP1;ratioP1;P1;durP2;ratioP2;P2;SDS_P1;SDS_P2;PMS_P1;PMS_P2;Temp;Humidity;BMP_temperature;BMP_pressure;BME280_temperature;BME280_humidity;BME280_pressure;Samples;Min_cycle;Max_cycle;Signal;HPM_P1;HPM_P2
2022/08/22 00:02:44;;;;;;;8.85;3.15;;;17.60;99.90;;;;;;5003588;28;20038;-61
2022/08/22 00:05:41;;;;;;;7.95;3.10;;;17.50;99.90;;;;;;5002048;28;20048;-61
2022/08/22 00:08:31;;;;;;;8.68;3.20;;;17.50;99.90;;;;;;4999253;28;20042;-61
2022/08/22 00:11:06;;;;;;;7.22;3.30;;;17.40;99.90;;;;;;5003154;28;20056;-60
2022/08/22 00:14:00;;;;;;;8.57;3.50;;;17.40;99.90;;;;;;5002946;28;20374;-61
2022/08/22 00:16:52;;;;;;;9.52;3.45;;;17.50;99.90;;;;;;5003054;28;20082;-61
2022/08/22 00:19:30;;;;;;;11.90;4.72;;;17.40;99.90;;;;;;5003442;28;20124;-60
2022/08/22 00:22:25;;;;;;;10.25;4.20;;;17.20;99.90;;;;;;4983901;28;20053;-60
2022/08/22 00:25:06;;;;;;;8.27;3.70;;;17.20;99.90;;;;;;5002745;28;20038;-60
2022/08/22 00:27:43;;;;;;;8.25;3.55;;;17.30;99.90;;;;;;5003186;28;20042;-61
2022/08/22 00:30:13;;;;;;;8.57;3.50;;;17.30;99.90;;;;;;5003180;28;20432;-61
2022/08/22 00:32:49;;;;;;;10.52;3.42;;;17.20;99.90;;;;;;5001915;28;20405;-59
2022/08/22 00:35:21;;;;;;;9.02;4.00;;;17.20;99.90;;;;;;5002050;28;20424;-60
2022/08/22 00:38:01;;;;;;;9.98;3.85;;;17.10;99.90;;;;;;5001945;28;20080;-61
2022/08/22 00:40:48;;;;;;;9.10;3.60;;;17.10;99.90;;;;;;4985308;28;20053;-61
2022/08/22 00:43:41;;;;;;;8.85;3.65;;;17.20;99.90;;;;;;5002592;28;20089;-62
2022/08/22 00:46:22;;;;;;;7.80;3.67;;;17.20;99.90;;;;;;5002834;28;20049;-61
2022/08/22 00:49:12;;;;;;;8.65;3.70;;;17.20;99.90;;;;;;5002496;28;20042;-62
2022/08/22 00:51:38;;;;;;;8.82;3.63;;;17.20;99.90;;;;;;4983346;28;20522;-61
2022/08/22 00:54:33;;;;;;;7.30;4.43;;;17.20;99.90;;;;;;4984976;28;20054;-63
2022/08/22 00:57:10;;;;;;;11.55;4.55;;;17.20;99.90;;;;;;4994348;28;20097;-63
2022/08/22 01:00:13;;;;;;;7.38;3.45;;;17.20;99.90;;;;;;5002448;28;20233;-61
2022/08/22 01:05:17;;;;;;;9.45;4.70;;;17.20;99.90;;;;;;5030278;28;20099;-56
2022/08/22 01:07:49;;;;;;;7.88;4.50;;;17.20;99.90;;;;;;5040779;28;20362;-56
2022/08/22 01:10:42;;;;;;;11.30;5.18;;;17.10;99.90;;;;;;5026487;28;20053;-57
2022/08/22 01:13:20;;;;;;;12.13;5.35;;;16.90;99.90;;;;;;5021764;28;20080;-56
2022/08/22 01:15:49;;;;;;;12.73;5.57;;;16.90;99.90;;;;;;5021700;28;20132;-56
2022/08/22 01:18:35;;;;;;;13.23;5.05;;;16.80;99.90;;;;;;5021250;28;20041;-56
2022/08/22 01:21:25;;;;;;;9.20;4.97;;;16.90;99.90;;;;;;5021425;28;20137;-55
2022/08/22 01:24:06;;;;;;;9.98;5.35;;;17.00;99.90;;;;;;5021769;28;20056;-56
2022/08/22 01:27:00;;;;;;;16.88;5.28;;;17.00;99.90;;;;;;5022289;28;20486;-56
2022/08/22 01:29:54;;;;;;;10.13;5.43;;;16.90;99.90;;;;;;5020045;28;20393;-55
2022/08/22 01:32:23;;;;;;;13.45;5.55;;;17.00;99.90;;;;;;5003894;28;20049;-56
2022/08/22 01:35:07;;;;;;;11.02;5.50;;;17.00;99.90;;;;;;5025346;28;20085;-56
2022/08/22 01:38:06;;;;;;;12.20;6.10;;;17.10;99.90;;;;;;5028183;28;20041;-54
2022/08/22 01:41:00;;;;;;;9.52;5.78;;;16.90;99.90;;;;;;5026936;28;20076;-56
2022/08/22 01:43:47;;;;;;;11.30;5.72;;;16.90;99.90;;;;;;5028419;28;20052;-56
2022/08/22 01:46:30;;;;;;;10.88;5.72;;;16.70;99.90;;;;;;5028089;28;20502;-56
2022/08/22 01:49:17;;;;;;;8.00;4.88;;;16.70;99.90;;;;;;5028335;28;20124;-55
2022/08/22 01:51:55;;;;;;;10.02;5.57;;;16.70;99.90;;;;;;5027374;28;20084;-55
2022/08/22 01:54:23;;;;;;;9.38;5.30;;;16.70;99.90;;;;;;5027450;28;20137;-56
2022/08/22 01:56:49;;;;;;;10.00;5.55;;;16.70;99.90;;;;;;5027912;28;20099;-56
2022/08/22 01:59:29;;;;;;;9.13;5.30;;;16.60;99.90;;;;;;5027911;28;20472;-56
2022/08/22 02:02:16;;;;;;;8.93;5.30;;;16.60;99.90;;;;;;5027297;28;20041;-55
2022/08/22 02:04:47;;;;;;;8.05;4.80;;;16.70;99.90;;;;;;5026537;28;20065;-56
2022/08/22 02:07:21;;;;;;;10.32;5.22;;;16.70;99.90;;;;;;5044820;28;20144;-56
2022/08/22 02:10:07;;;;;;;10.55;5.03;;;16.70;99.90;;;;;;5030098;28;20036;-56
2022/08/22 02:12:51;;;;;;;11.07;5.53;;;16.70;99.90;;;;;;5029659;28;20049;-55
2022/08/22 02:15:37;;;;;;;10.80;5.78;;;16.60;99.90;;;;;;5048191;28;20120;-56
2022/08/22 02:18:09;;;;;;;9.25;5.50;;;16.60;99.90;;;;;;5034169;28;20053;-55
2022/08/22 02:20:46;;;;;;;10.48;5.82;;;16.50;99.90;;;;;;5047414;28;20094;-54
2022/08/22 02:23:33;;;;;;;9.40;5.45;;;16.50;99.90;;;;;;5047440;28;20055;-55
2022/08/22 02:26:02;;;;;;;10.85;5.60;;;16.50;99.90;;;;;;5047690;28;20073;-55
2022/08/22 02:28:27;;;;;;;14.13;5.35;;;16.50;99.90;;;;;;5047308;28;20045;-55
2022/08/22 02:30:53;;;;;;;11.77;5.13;;;16.40;99.90;;;;;;5047474;28;20049;-57
2022/08/22 02:33:52;;;;;;;11.90;6.65;;;16.40;99.90;;;;;;5047805;28;20041;-56
2022/08/22 02:36:30;;;;;;;13.32;5.78;;;16.40;99.90;;;;;;5026431;28;20123;-56
2022/08/22 02:39:40;;;;;;;13.93;5.97;;;16.30;99.90;;;;;;5027749;28;20060;-55
2022/08/22 02:42:40;;;;;;;11.30;5.90;;;16.30;99.90;;;;;;4996799;28;20111;-56
2022/08/22 02:45:09;;;;;;;10.20;5.35;;;16.40;99.90;;;;;;5026155;28;20042;-56
2022/08/22 02:47:39;;;;;;;9.80;5.43;;;16.30;99.90;;;;;;5006429;28;20054;-56
2022/08/22 02:50:25;;;;;;;10.25;5.60;;;16.30;99.90;;;;;;5023922;28;20402;-55
2022/08/22 02:53:10;;;;;;;10.95;5.50;;;16.40;99.90;;;;;;5023397;28;20049;-56
2022/08/22 02:55:38;;;;;;;;;;;16.40;99.90;;;;;;5006945;28;20083;-56
2022/08/22 02:58:14;;;;;;;9.52;5.57;;;16.40;99.90;;;;;;5025011;28;19921;-56
2022/08/22 03:00:51;;;;;;;11.80;6.50;;;16.40;99.90;;;;;;5024263;28;20099;-55
2022/08/22 03:03:20;;;;;;;12.70;5.15;;;16.40;99.90;;;;;;5024113;28;20140;-57
2022/08/22 03:05:55;;;;;;;9.57;5.20;;;16.40;99.90;;;;;;5028003;28;20061;-55
2022/08/22 03:08:33;;;;;;;12.20;5.57;;;16.40;99.90;;;;;;5044073;28;20170;-56
2022/08/22 03:11:25;;;;;;;12.40;7.03;;;16.30;99.90;;;;;;5025364;28;20053;-56
2022/08/22 03:14:13;;;;;;;12.10;6.25;;;16.10;99.90;;;;;;5043905;28;20622;-57
2022/08/22 03:17:17;;;;;;;9.52;5.45;;;16.10;99.90;;;;;;5026047;28;20080;-55
2022/08/22 03:20:08;;;;;;;9.65;5.20;;;16.20;99.90;;;;;;5043094;28;20434;-56
2022/08/22 03:23:01;;;;;;;10.65;5.32;;;16.10;99.90;;;;;;5044353;28;20049;-56
2022/08/22 03:25:38;;;;;;;10.60;5.90;;;16.20;99.90;;;;;;5043909;28;20386;-56
2022/08/22 03:28:25;;;;;;;9.57;5.75;;;16.10;99.90;;;;;;5043640;28;20537;-56
2022/08/22 03:31:09;;;;;;;8.40;5.78;;;16.00;99.90;;;;;;5043401;28;20695;-56
2022/08/22 03:33:34;;;;;;;13.02;6.45;;;15.90;99.90;;;;;;5043774;28;20388;-55
2022/08/22 03:36:15;;;;;;;11.32;6.10;;;15.90;99.90;;;;;;5043301;28;20052;-55
2022/08/22 03:39:01;;;;;;;12.45;5.72;;;15.90;99.90;;;;;;5042699;28;20041;-55
2022/08/22 03:41:38;;;;;;;12.73;6.20;;;15.80;99.90;;;;;;5043653;28;20171;-57
2022/08/22 03:44:10;;;;;;;10.15;6.03;;;15.80;99.90;;;;;;5025413;28;20680;-55
2022/08/22 03:46:42;;;;;;;11.90;6.80;;;15.80;99.90;;;;;;5043330;28;20515;-56
2022/08/22 03:49:19;;;;;;;10.05;5.65;;;15.80;99.90;;;;;;5043217;28;20135;-56
2022/08/22 03:51:54;;;;;;;8.32;5.35;;;15.90;99.90;;;;;;5043162;28;20084;-57
2022/08/22 03:54:47;;;;;;;11.30;5.95;;;15.90;99.90;;;;;;5025219;28;20049;-55
2022/08/22 03:57:37;;;;;;;11.95;5.85;;;15.90;99.90;;;;;;5025053;28;20063;-56
2022/08/22 04:00:17;;;;;;;8.40;5.55;;;16.00;99.90;;;;;;5042890;28;20190;-56
2022/08/22 04:02:58;;;;;;;9.60;5.40;;;16.00;99.90;;;;;;5042933;28;20076;-56
2022/08/22 04:06:04;;;;;;;11.00;5.30;;;16.00;99.90;;;;;;5041303;28;20140;-57
2022/08/22 04:08:57;;;;;;;10.50;6.00;;;16.10;99.90;;;;;;5042339;28;20041;-55
2022/08/22 04:12:12;;;;;;;10.05;5.55;;;16.10;99.90;;;;;;5042673;28;20048;-56
2022/08/22 04:15:00;;;;;;;8.48;5.15;;;16.10;99.90;;;;;;4926275;28;20074;-55
2022/08/22 04:17:47;;;;;;;9.88;5.07;;;16.10;99.90;;;;;;5042920;28;20048;-56
2022/08/22 04:20:47;;;;;;;11.40;5.80;;;16.10;99.90;;;;;;5023391;28;20057;-56
2022/08/22 04:23:18;;;;;;;8.80;5.15;;;16.20;99.90;;;;;;5042246;28;20052;-56
2022/08/22 04:25:57;;;;;;;11.43;5.20;;;16.20;99.90;;;;;;5042151;28;20037;-56
2022/08/22 04:28:33;;;;;;;10.75;5.70;;;16.20;99.90;;;;;;5042762;28;20385;-56
2022/08/22 04:31:17;;;;;;;11.55;6.50;;;16.30;99.90;;;;;;5042159;28;20381;-56
2022/08/22 04:33:45;;;;;;;14.80;6.93;;;16.30;99.90;;;;;;5041683;28;20060;-56
2022/08/22 04:36:20;;;;;;;13.05;6.40;;;16.30;99.90;;;;;;5041497;28;20116;-54
2022/08/22 04:39:05;;;;;;;10.88;6.70;;;16.20;99.90;;;;;;5042068;28;20832;-56
2022/08/22 04:41:40;;;;;;;12.40;6.60;;;16.20;99.90;;;;;;5023895;28;20045;-56
2022/08/22 04:44:26;;;;;;;10.30;6.88;;;16.10;99.90;;;;;;5042401;28;20099;-56
2022/08/22 04:47:03;;;;;;;13.38;6.90;;;16.10;99.90;;;;;;5041610;28;20398;-55
2022/08/22 04:49:37;;;;;;;11.18;7.03;;;16.10;99.90;;;;;;5041137;28;20045;-56
2022/08/22 04:52:09;;;;;;;10.02;6.30;;;16.20;99.90;;;;;;5041881;28;20056;-56
2022/08/22 04:55:12;;;;;;;10.98;6.35;;;16.20;99.90;;;;;;5041620;28;20057;-55
2022/08/22 04:57:52;;;;;;;12.82;6.50;;;16.30;99.90;;;;;;5041861;28;20128;-55
2022/08/22 05:00:18;;;;;;;12.45;7.07;;;16.50;99.90;;;;;;5042072;28;20093;-54
2022/08/22 05:02:50;;;;;;;12.32;6.50;;;16.50;99.90;;;;;;5040891;28;20684;-56
2022/08/22 05:05:24;;;;;;;14.27;6.90;;;16.50;99.90;;;;;;5000669;28;20436;-56
2022/08/22 05:07:55;;;;;;;14.18;6.65;;;16.60;99.90;;;;;;4999663;28;20042;-56
2022/08/22 05:10:32;;;;;;;12.30;6.35;;;16.50;99.90;;;;;;5001644;28;20065;-55
2022/08/22 05:13:08;;;;;;;15.40;6.35;;;16.50;99.90;;;;;;5002032;28;20042;-56
2022/08/22 05:15:42;;;;;;;10.98;6.28;;;16.70;99.90;;;;;;5001951;28;20056;-56
2022/08/22 05:18:37;;;;;;;11.00;6.05;;;16.70;99.90;;;;;;5001997;28;20042;-54
2022/08/22 05:21:07;;;;;;;15.05;6.70;;;16.80;99.90;;;;;;5000454;28;20164;-56
2022/08/22 05:23:38;;;;;;;12.85;6.65;;;16.80;99.90;;;;;;5002203;28;20042;-56
2022/08/22 05:26:06;;;;;;;11.13;6.40;;;16.80;99.90;;;;;;5001925;28;20045;-57
2022/08/22 05:28:39;;;;;;;10.93;6.45;;;16.80;99.90;;;;;;5002656;28;20131;-56
2022/08/22 05:31:20;;;;;;;13.35;6.90;;;16.80;99.90;;;;;;5000696;28;20046;-55
2022/08/22 05:33:51;;;;;;;12.18;6.55;;;16.80;99.90;;;;;;5001996;28;20050;-56
2022/08/22 05:36:25;;;;;;;16.95;6.10;;;16.80;99.90;;;;;;5001122;28;20360;-56
2022/08/22 05:38:59;;;;;;;10.48;6.20;;;16.80;99.90;;;;;;4999879;28;20054;-56
2022/08/22 05:41:30;;;;;;;14.50;6.63;;;16.90;99.90;;;;;;5001981;28;20136;-56
2022/08/22 05:43:57;;;;;;;14.27;6.57;;;17.00;99.90;;;;;;5001705;28;20041;-56
2022/08/22 05:46:38;;;;;;;10.85;5.68;;;17.00;99.90;;;;;;5001660;28;20134;-56
2022/08/22 05:49:07;;;;;;;13.13;6.20;;;17.00;99.90;;;;;;5001474;28;20038;-55
2022/08/22 05:51:46;;;;;;;16.08;6.45;;;17.20;99.90;;;;;;5001574;28;20472;-56
2022/08/22 05:54:20;;;;;;;10.00;5.57;;;17.10;99.90;;;;;;5001774;28;20065;-56
2022/08/22 05:56:56;;;;;;;11.45;5.70;;;17.20;99.90;;;;;;5001539;28;20108;-56
2022/08/22 05:59:28;;;;;;;14.57;6.22;;;17.20;99.90;;;;;;5001509;28;20077;-55
2022/08/22 06:02:25;;;;;;;10.25;6.20;;;17.30;99.90;;;;;;5001431;28;20046;-56
2022/08/22 06:04:58;;;;;;;14.05;6.47;;;17.30;99.90;;;;;;5035083;28;20057;-56
2022/08/22 06:07:30;;;;;;;12.00;5.82;;;17.40;99.90;;;;;;5040487;28;20045;-55
2022/08/22 06:09:59;;;;;;;17.13;6.18;;;17.40;99.90;;;;;;5040820;28;20123;-56
2022/08/22 06:12:31;;;;;;;15.90;7.18;;;17.30;99.90;;;;;;5041115;28;20396;-55
2022/08/22 06:15:18;;;;;;;13.23;6.18;;;17.40;99.90;;;;;;5040237;28;20041;-56
2022/08/22 06:17:51;;;;;;;13.15;5.80;;;17.50;99.90;;;;;;5041199;28;20446;-56
2022/08/22 06:20:31;;;;;;;9.98;5.43;;;17.60;99.90;;;;;;5040049;28;20446;-56
2022/08/22 06:23:01;;;;;;;11.65;5.80;;;17.60;99.90;;;;;;5044730;28;20365;-55
2022/08/22 06:25:32;;;;;;;13.35;5.68;;;17.50;99.90;;;;;;5045017;28;20399;-56
2022/08/22 06:28:04;;;;;;;13.55;6.25;;;17.60;99.90;;;;;;5044700;28;20144;-56
2022/08/22 06:30:32;;;;;;;11.40;5.65;;;17.50;99.90;;;;;;5027348;28;20525;-55
2022/08/22 06:33:04;;;;;;;12.02;5.22;;;17.60;99.90;;;;;;5044473;28;20044;-56
2022/08/22 06:38:28;;;;;;;11.05;5.40;;;17.60;99.90;;;;;;5044051;28;20094;-56
2022/08/22 06:40:54;;;;;;;12.45;6.10;;;17.70;99.90;;;;;;5044713;28;20045;-56
2022/08/22 06:43:23;;;;;;;12.45;5.70;;;17.80;99.90;;;;;;5044403;28;20056;-56
2022/08/22 06:45:49;;;;;;;12.23;5.40;;;17.80;99.90;;;;;;5044113;28;20045;-55
2022/08/22 06:48:22;;;;;;;12.25;5.70;;;17.80;99.90;;;;;;5044425;28;20059;-56
2022/08/22 06:50:52;;;;;;;10.98;5.30;;;17.90;99.90;;;;;;5043747;28;20041;-56
2022/08/22 06:53:22;;;;;;;14.38;4.88;;;17.90;99.90;;;;;;5043739;28;20045;-56
2022/08/22 06:55:52;;;;;;;10.98;5.25;;;18.00;99.90;;;;;;5044065;28;20047;-55
2022/08/22 06:58:26;;;;;;;12.80;5.60;;;18.00;99.90;;;;;;5044407;28;20107;-56
2022/08/22 07:00:57;;;;;;;15.20;6.00;;;18.10;99.90;;;;;;5025744;28;20610;-56
2022/08/22 07:03:34;;;;;;;13.40;5.90;;;18.00;99.90;;;;;;5044059;28;20626;-56
2022/08/22 07:06:01;;;;;;;12.63;5.40;;;18.10;99.90;;;;;;5042463;28;20053;-56
2022/08/22 07:08:31;;;;;;;9.55;5.43;;;18.20;99.90;;;;;;5026117;28;20033;-56
2022/08/22 07:11:22;;;;;;;15.07;5.60;;;18.30;99.90;;;;;;5025687;28;20080;-57
2022/08/22 07:14:03;;;;;;;13.95;5.60;;;18.30;99.90;;;;;;5043903;28;20044;-56
2022/08/22 07:16:56;;;;;;;11.82;4.78;;;18.40;99.90;;;;;;5044290;28;20044;-57
2022/08/22 07:19:30;;;;;;;12.43;5.43;;;18.40;99.90;;;;;;5033281;28;20577;-57
2022/08/22 07:21:57;;;;;;;11.07;5.30;;;18.40;99.90;;;;;;5043472;28;20048;-57
2022/08/22 07:24:30;;;;;;;11.50;4.53;;;18.50;99.90;;;;;;5025936;28;20048;-57
2022/08/22 07:27:14;;;;;;;13.60;4.68;;;18.50;99.90;;;;;;5043772;28;20067;-56
2022/08/22 07:30:00;;;;;;;11.67;5.00;;;18.60;99.90;;;;;;5025624;28;20079;-56
2022/08/22 07:32:42;;;;;;;10.15;4.43;;;18.70;99.90;;;;;;5025523;28;20052;-57
2022/08/22 07:35:09;;;;;;;13.23;5.10;;;18.80;99.90;;;;;;5042929;28;20429;-57
2022/08/22 07:37:50;;;;;;;9.40;4.68;;;18.60;99.90;;;;;;5043481;28;20057;-57
2022/08/22 07:40:49;;;;;;;11.13;4.78;;;18.60;99.90;;;;;;5043111;28;20037;-57
2022/08/22 07:43:36;;;;;;;12.52;4.60;;;18.60;99.90;;;;;;5008832;28;20052;-57
2022/08/22 07:46:30;;;;;;;12.07;4.72;;;18.60;99.90;;;;;;5043801;28;20060;-56
2022/08/22 07:49:20;;;;;;;11.20;4.50;;;18.60;99.90;;;;;;5042402;28;20048;-57
2022/08/22 07:51:50;;;;;;;12.52;4.45;;;18.70;99.90;;;;;;5042562;28;20468;-56
2022/08/22 07:54:24;;;;;;;11.57;4.50;;;18.70;99.90;;;;;;5043223;28;20722;-56
2022/08/22 07:56:59;;;;;;;13.70;4.53;;;18.80;99.90;;;;;;5043080;28;20103;-56
2022/08/22 07:59:27;;;;;;;14.02;4.80;;;18.80;99.90;;;;;;5024785;28;20045;-56
2022/08/22 08:01:56;;;;;;;12.95;4.43;;;18.90;99.90;;;;;;5042972;28;20037;-56
2022/08/22 08:04:28;;;;;;;12.88;4.40;;;19.00;99.90;;;;;;5042123;28;20053;-57
2022/08/22 08:06:57;;;;;;;11.93;4.55;;;19.20;99.90;;;;;;5048059;28;20539;-56
2022/08/22 08:09:26;;;;;;;9.40;4.00;;;19.20;99.90;;;;;;5053517;28;20033;-54
2022/08/22 08:11:53;;;;;;;14.13;4.05;;;19.20;99.90;;;;;;5051676;28;20083;-54
2022/08/22 08:14:22;;;;;;;13.77;3.90;;;19.20;99.90;;;;;;5052863;28;20059;-55
2022/08/22 08:17:22;;;;;;;9.07;3.95;;;19.20;99.90;;;;;;5051669;28;20482;-54
2022/08/22 08:19:49;;;;;;;10.18;3.60;;;19.30;99.90;;;;;;5048132;28;20507;-54
2022/08/22 08:22:20;;;;;;;11.55;3.83;;;19.30;99.90;;;;;;5051407;28;20143;-54
2022/08/22 08:24:48;;;;;;;11.93;3.60;;;19.40;99.90;;;;;;5048707;28;20041;-56
2022/08/22 08:30:27;;;;;;;13.77;3.88;;;19.60;99.90;;;;;;5048561;28;20088;-55
2022/08/22 08:32:56;;;;;;;11.73;3.83;;;19.70;99.90;;;;;;5045691;28;20111;-55
2022/08/22 08:35:25;;;;;;;8.43;3.67;;;19.70;99.90;;;;;;5061313;28;20040;-54
2022/08/22 08:38:00;;;;;;;12.90;3.65;;;19.80;99.90;;;;;;5062167;28;20131;-54
2022/08/22 08:40:31;;;;;;;12.52;3.78;;;19.90;99.90;;;;;;5062069;28;20075;-53
2022/08/22 08:43:26;;;;;;;9.88;3.70;;;20.00;99.90;;;;;;5061229;28;20051;-54
2022/08/22 08:46:10;;;;;;;15.88;4.35;;;20.10;99.90;;;;;;5053892;28;20431;-52
2022/08/22 08:48:41;;;;;;;13.20;3.80;;;20.20;99.90;;;;;;5046931;28;20049;-55
2022/08/22 08:51:18;;;;;;;9.02;3.65;;;20.10;99.90;;;;;;5060895;28;20348;-54
2022/08/22 08:54:05;;;;;;;11.05;3.80;;;20.20;99.90;;;;;;5041509;28;20413;-56
2022/08/22 08:56:30;;;;;;;10.60;3.17;;;20.40;99.90;;;;;;5041765;28;20130;-55
2022/08/22 08:58:59;;;;;;;12.27;3.83;;;20.40;99.90;;;;;;5041073;28;20116;-55
2022/08/22 09:02:06;;;;;;;10.02;3.38;;;20.50;99.90;;;;;;5041646;28;20056;-55
2022/08/22 09:05:10;;;;;;;11.85;2.80;;;20.70;99.90;;;;;;5040624;28;20044;-55
2022/08/22 09:08:15;;;;;;;10.80;3.63;;;20.90;99.90;;;;;;5043638;28;20041;-54
2022/08/22 09:11:00;;;;;;;;;;;21.00;99.90;;;;;;4993560;28;20491;-55
2022/08/22 09:13:47;;;;;;;12.20;3.65;;;21.00;99.90;;;;;;5051963;28;20157;-53
2022/08/22 09:16:32;;;;;;;8.02;2.92;;;21.10;99.90;;;;;;5062287;28;20500;-55
2022/08/22 09:19:31;;;;;;;10.07;3.00;;;21.00;99.90;;;;;;5061178;28;20078;-54
2022/08/22 09:22:06;;;;;;;9.40;3.20;;;21.10;99.90;;;;;;5021558;28;20136;-54
2022/08/22 09:25:00;;;;;;;9.10;3.17;;;21.00;99.90;;;;;;5021534;28;20049;-55
2022/08/22 09:27:39;;;;;;;13.00;3.83;;;21.00;99.90;;;;;;5014727;28;20053;-54
2022/08/22 09:30:08;;;;;;;16.83;3.63;;;21.00;99.90;;;;;;5021675;28;20053;-54
2022/08/22 09:32:59;;;;;;;9.93;3.28;;;21.10;99.90;;;;;;5022069;28;20132;-54
2022/08/22 09:35:54;;;;;;;11.27;3.45;;;21.70;99.90;;;;;;5021153;28;20400;-55
2022/08/22 09:38:33;;;;;;;;;;;21.80;99.90;;;;;;5021965;28;20049;-55
2022/08/22 09:41:13;;;;;;;8.68;3.53;;;22.10;99.90;;;;;;5021765;28;19948;-55
2022/08/22 09:44:31;;;;;;;13.35;3.55;;;22.40;99.90;;;;;;5021471;28;20041;-54
2022/08/22 09:47:05;;;;;;;15.05;3.35;;;22.50;99.90;;;;;;4950049;28;20074;-54
2022/08/22 09:49:55;;;;;;;10.48;3.45;;;23.00;99.90;;;;;;5021467;28;20080;-56
2022/08/22 09:52:32;;;;;;;10.90;2.97;;;23.20;99.90;;;;;;5044632;28;20077;-54
2022/08/22 09:55:23;;;;;;;8.55;2.92;;;23.60;99.90;;;;;;5042289;28;20069;-54
2022/08/22 09:58:26;;;;;;;9.27;3.20;;;23.30;99.90;;;;;;5003833;28;20088;-54
2022/08/22 10:00:57;;;;;;;11.10;2.97;;;23.70;99.90;;;;;;5042052;28;20045;-55
2022/08/22 10:03:48;;;;;;;7.93;2.50;;;23.10;99.90;;;;;;5043893;28;20052;-56
2022/08/22 10:06:25;;;;;;;9.27;2.85;;;23.10;99.90;;;;;;5005951;28;20056;-54
2022/08/22 10:09:28;;;;;;;14.55;3.45;;;23.10;99.90;;;;;;5026491;28;20490;-53
2022/08/22 10:12:08;;;;;;;9.57;2.60;;;22.80;99.90;;;;;;5039470;28;20093;-55
2022/08/22 10:15:03;;;;;;;8.57;2.72;;;22.70;99.90;;;;;;5044501;28;20052;-55
2022/08/22 10:17:35;;;;;;;9.05;2.35;;;22.70;99.90;;;;;;5024648;28;20065;-55
2022/08/22 10:20:20;;;;;;;9.65;2.92;;;22.90;99.90;;;;;;5024003;28;20049;-56
2022/08/22 10:23:13;;;;;;;8.50;2.60;;;22.90;99.90;;;;;;5024050;28;20084;-55
2022/08/22 10:26:14;;;;;;;8.88;2.70;;;22.90;99.90;;;;;;5024141;28;20103;-56
2022/08/22 10:29:06;;;;;;;6.95;2.35;;;22.90;99.90;;;;;;5004800;28;20049;-55
2022/08/22 10:31:56;;;;;;;9.93;2.40;;;23.10;99.90;;;;;;4992814;28;20096;-56
2022/08/22 10:34:28;;;;;;;8.98;2.42;;;23.10;99.90;;;;;;5023370;28;20046;-55
2022/08/22 10:37:35;;;;;;;9.50;2.55;;;23.00;99.90;;;;;;5005558;28;20054;-55
2022/08/22 10:40:38;;;;;;;10.23;2.63;;;23.00;99.90;;;;;;5023295;28;20049;-55
2022/08/22 10:43:10;;;;;;;6.55;2.72;;;23.10;99.90;;;;;;5023944;28;20060;-55
2022/08/22 10:45:40;;;;;;;10.50;2.40;;;23.00;99.90;;;;;;5023689;28;20041;-55
2022/08/22 10:48:09;;;;;;;8.40;2.28;;;23.00;99.90;;;;;;5023228;28;20169;-56
2022/08/22 10:50:37;;;;;;;9.00;2.35;;;23.00;99.90;;;;;;5024184;28;20037;-56
2022/08/22 10:53:29;;;;;;;6.25;2.30;;;22.90;99.90;;;;;;5023034;28;20531;-56
2022/08/22 10:56:03;;;;;;;9.45;2.72;;;23.00;99.90;;;;;;5023375;28;20065;-56
2022/08/22 10:58:31;;;;;;;;;;;23.10;99.90;;;;;;5024174;28;20073;-56
2022/08/22 11:01:01;;;;;;;8.90;2.28;;;23.10;99.90;;;;;;5023375;28;19924;-55
2022/08/22 11:03:45;;;;;;;7.28;2.78;;;23.20;99.90;;;;;;5021488;28;20057;-56
2022/08/22 11:06:28;;;;;;;7.88;2.60;;;23.20;99.90;;;;;;5031727;28;20053;-55
2022/08/22 11:09:13;;;;;;;10.23;2.42;;;23.20;99.90;;;;;;5041689;28;20045;-56
2022/08/22 11:12:01;;;;;;;7.90;3.20;;;23.40;99.90;;;;;;5043578;28;20049;-52
2022/08/22 11:14:48;;;;;;;5.55;2.20;;;23.50;99.90;;;;;;5043046;28;20045;-54
2022/08/22 11:17:46;;;;;;;7.95;2.30;;;23.50;99.90;;;;;;5044005;28;20052;-54
2022/08/22 11:20:23;;;;;;;6.25;2.05;;;23.70;99.90;;;;;;5012261;28;20500;-55
2022/08/22 11:23:20;;;;;;;7.05;2.50;;;23.80;99.90;;;;;;5043027;28;20121;-55
2022/08/22 11:26:00;;;;;;;4.40;1.90;;;23.70;99.90;;;;;;5043962;28;20049;-56
2022/08/22 11:28:42;;;;;;;7.45;1.95;;;23.80;99.90;;;;;;5043496;28;20052;-54
2022/08/22 11:31:16;;;;;;;6.80;2.00;;;23.60;99.90;;;;;;5061562;28;20087;-55
2022/08/22 11:33:50;;;;;;;8.07;2.13;;;23.50;99.90;;;;;;5041566;28;20052;-55
2022/08/22 11:36:30;;;;;;;4.45;1.90;;;23.60;99.90;;;;;;5042268;28;20067;-54
2022/08/22 11:39:13;;;;;;;5.53;1.80;;;23.40;99.90;;;;;;5043242;28;20079;-54
2022/08/22 11:41:43;;;;;;;5.35;2.00;;;23.40;99.90;;;;;;5023510;28;20495;-55
2022/08/22 11:44:42;;;;;;;5.80;2.33;;;23.40;99.90;;;;;;5022697;28;20041;-54
2022/08/22 11:47:12;;;;;;;9.60;2.30;;;23.50;99.90;;;;;;5040410;28;20124;-57
2022/08/22 11:49:56;;;;;;;5.80;1.80;;;23.50;99.90;;;;;;5058021;28;20170;-53
2022/08/22 11:52:36;;;;;;;6.60;1.90;;;23.60;99.90;;;;;;5050968;28;20403;-54
2022/08/22 11:55:30;;;;;;;7.45;2.38;;;23.60;99.90;;;;;;5052862;28;20132;-54
2022/08/22 11:58:09;;;;;;;6.40;1.90;;;23.40;99.90;;;;;;5055432;28;20546;-55
2022/08/22 12:01:03;;;;;;;6.38;1.98;;;23.30;99.90;;;;;;5062986;28;20040;-57
2022/08/22 12:04:06;;;;;;;8.57;2.30;;;23.50;99.90;;;;;;5053559;28;20644;-54
2022/08/22 12:06:44;;;;;;;7.47;2.10;;;23.40;99.90;;;;;;5042838;28;20558;-55
2022/08/22 12:09:43;;;;;;;6.32;1.88;;;23.60;99.90;;;;;;5037450;28;20055;-55
2022/08/22 12:12:19;;;;;;;8.60;1.98;;;23.50;99.90;;;;;;5041614;28;20045;-53
2022/08/22 12:15:34;;;;;;;5.35;1.88;;;23.90;99.90;;;;;;5041664;28;20123;-53
2022/08/22 12:18:33;;;;;;;7.93;2.20;;;23.90;99.90;;;;;;4959040;28;20149;-55
2022/08/22 12:21:19;;;;;;;7.13;1.90;;;24.00;99.90;;;;;;5022677;28;20515;-55
2022/08/22 12:23:55;;;;;;;7.63;2.67;;;23.90;99.90;;;;;;5041086;28;20052;-55
2022/08/22 12:26:21;;;;;;;5.72;1.98;;;23.90;99.90;;;;;;5040583;28;20510;-55
2022/08/22 12:29:16;;;;;;;8.13;2.15;;;24.10;99.90;;;;;;5041396;28;20041;-55
2022/08/22 12:32:09;;;;;;;6.47;2.10;;;24.30;99.90;;;;;;5040882;28;20133;-55
2022/08/22 12:35:04;;;;;;;8.52;2.10;;;24.20;99.90;;;;;;5041065;28;20133;-51
2022/08/22 12:37:46;;;;;;;9.00;2.65;;;24.50;99.90;;;;;;5041664;28;20037;-55
2022/08/22 12:40:34;;;;;;;5.22;2.15;;;24.50;99.90;;;;;;5036253;28;20083;-56
2022/08/22 12:43:24;;;;;;;6.55;2.15;;;24.60;99.90;;;;;;5041481;28;20091;-58
2022/08/22 12:46:17;;;;;;;7.35;3.10;;;24.80;99.90;;;;;;5041165;28;20052;-54
2022/08/22 12:48:46;;;;;;;7.85;2.25;;;24.70;99.90;;;;;;5039592;28;20681;-54
2022/08/22 12:51:29;;;;;;;8.52;2.53;;;24.70;99.90;;;;;;5041551;28;20056;-54
2022/08/22 12:54:09;;;;;;;11.43;3.33;;;25.00;99.90;;;;;;5041834;28;20420;-57
2022/08/22 12:56:40;;;;;;;9.40;2.63;;;24.80;99.90;;;;;;5039958;28;20487;-58
2022/08/22 12:59:21;;;;;;;7.18;2.10;;;24.80;99.90;;;;;;5042309;28;20077;-57
2022/08/22 13:01:51;;;;;;;6.15;2.20;;;24.60;99.90;;;;;;5042017;28;20040;-57
2022/08/22 13:04:25;;;;;;;9.35;2.78;;;24.70;99.90;;;;;;5029296;28;20085;-58
2022/08/22 13:06:53;;;;;;;8.05;2.25;;;24.70;99.90;;;;;;5017880;28;20116;-57
2022/08/22 13:09:29;;;;;;;6.05;2.90;;;24.70;99.90;;;;;;5015983;28;20052;-57
2022/08/22 13:12:00;;;;;;;6.43;2.25;;;24.60;99.90;;;;;;5017675;28;20412;-57
2022/08/22 13:14:28;;;;;;;7.90;2.80;;;24.70;99.90;;;;;;5017384;28;20053;-57
2022/08/22 13:16:59;;;;;;;9.40;2.78;;;24.90;99.90;;;;;;5016733;28;20065;-58
2022/08/22 13:19:31;;;;;;;6.35;2.40;;;25.00;99.90;;;;;;5016936;28;20088;-57
2022/08/22 13:22:03;;;;;;;7.18;2.28;;;25.40;99.90;;;;;;5018241;28;20041;-57
2022/08/22 13:24:48;;;;;;;8.57;2.70;;;25.90;99.90;;;;;;5016315;28;20041;-57
2022/08/22 13:27:19;;;;;;;10.23;2.53;;;25.90;99.90;;;;;;5016180;28;20143;-57
2022/08/22 13:30:06;;;;;;;7.88;2.42;;;25.90;99.90;;;;;;5016077;28;20225;-57
2022/08/22 13:32:38;;;;;;;10.10;2.72;;;25.90;99.90;;;;;;5017945;28;20076;-58
2022/08/22 13:35:07;;;;;;;8.27;2.55;;;25.90;99.90;;;;;;5017769;28;20037;-57
2022/08/22 13:37:43;;;;;;;10.05;2.38;;;26.10;99.90;;;;;;5018381;28;20053;-57
2022/08/22 13:40:30;;;;;;;6.18;2.42;;;26.10;99.90;;;;;;5015952;28;20433;-58
2022/08/22 13:43:09;;;;;;;7.18;2.65;;;25.90;99.90;;;;;;5017408;28;20038;-58
2022/08/22 13:45:38;;;;;;;6.95;2.60;;;26.10;99.90;;;;;;5016961;28;20433;-58
2022/08/22 13:48:13;;;;;;;7.03;2.60;;;26.10;99.90;;;;;;5015982;28;20049;-58
2022/08/22 13:51:04;;;;;;;5.97;2.42;;;26.30;99.90;;;;;;5016423;28;20038;-58
2022/08/22 13:53:33;;;;;;;8.90;2.67;;;26.20;99.90;;;;;;5017427;28;20041;-57
2022/08/22 13:56:16;;;;;;;6.68;2.60;;;26.40;99.90;;;;;;5016592;28;20044;-58
2022/08/22 13:58:57;;;;;;;6.38;2.75;;;26.50;99.90;;;;;;5017344;28;20050;-58
2022/08/22 14:01:49;;;;;;;8.10;2.30;;;26.80;99.90;;;;;;5017188;28;20496;-58